Meath Environmental Platform

Observations for Trim Patrick St

Time AQI Temp °C Hum % Pres Pa CO μg/m³ H₂S μg/m³ NO μg/m³ NO₂ μg/m³ O₃ μg/m³ SO₂ μg/m³ PM1 μg/m³ PM2.5 μg/m³ PM10 μg/m³
Saturday 1 August 2026
23:13 3 16.8 61 72,976 0.15 11.61 1.32 30.45 34.91 1.76 12.29 21.29 21.62
23:11 3 16.8 60 72,841 0.14 10.22 1.26 30.8 33.03 1.99 10.57 17.64 19.4
23:08 3 16.9 60 72,721 0.15 9.23 1.3 25.93 37.04 2.14 8 16.95 18.65
23:06 3 16.9 60 72,540 0.18 11.9 1.33 26.59 35.97 2.86 12.29 20.62 22.68
23:04 3 17 60 72,269 0.22 13.26 1.32 33.71 29.22 2.91 16.57 27.27 27.53
23:01 3 17.1 60 71,961 0.21 14.57 1.27 35.33 28.95 2.88 18.29 29.55 31.81
23:00 3 17.1 60 71,823 0.26 14.12 1.27 31.58 32.74 3.52 18.29 29.57 33.54
22:59 3 17.1 60 71,741 0.25 13.68 1.19 34.31 31.16 2.87 15.71 27.36 30.21
22:58 3 17.1 59 71,629 0.25 13.73 1.18 33.29 30.2 2.87 19.14 29.63 33.65
22:57 3 17.1 59 71,539 0.28 13.49 1.2 32.61 32.23 3.18 20.86 32.59 39.51
22:56 3 17.2 59 71,446 0.3 13.73 1.28 30.81 34.82 2.82 20.86 32.6 39.54
22:55 3 17.2 59 71,356 0.28 14.2 1.24 29.42 35.21 3.53 20.86 33.36 39.57
22:54 3 17.2 59 71,260 0.29 14.91 1.3 38.06 26.88 2.59 21.72 33.37 40.45
22:53 3 17.2 59 71,140 0.31 14.12 1.29 30.46 35.21 2.76 21.72 33.39 38.8
22:52 3 17.2 59 71,058 0.3 14.44 1.29 31.85 33.92 3.51 21.72 34.89 41.36
22:51 3 17.2 58 70,955 0.29 13.94 1.22 33.21 32.54 3.06 20.86 33.49 39.02
22:50 3 17.3 59 70,845 0.24 14.86 1.28 35.17 32.47 2.58 20 32.7 38.08
22:49 3 17.3 58 70,751 0.25 14.67 1.16 33.47 38.26 2.88 19.14 31.26 37.35
22:48 3 17.3 58 70,694 0.24 13.16 1.19 28.65 41.79 2.92 16.57 30.5 33.08
22:47 3 17.3 58 70,647 0.22 11.9 1.19 30.38 36.78 2.53 20 31.26 37.35